createdAt,value
2022-12-28T00:00:41.157Z,94.47
2022-12-28T00:02:12.825Z,95.23
2022-12-28T00:03:45.046Z,94.72
2022-12-28T00:05:17.919Z,93.63
2022-12-28T00:06:50.745Z,93.01
2022-12-28T00:08:22.441Z,92.72
2022-12-28T00:09:54.067Z,93.37
2022-12-28T00:11:31.129Z,93.52
2022-12-28T00:13:03.190Z,93.94
2022-12-28T00:14:35.003Z,94.16
2022-12-28T00:16:08.322Z,93.61
2022-12-28T00:17:39.919Z,93.92
2022-12-28T00:19:14.488Z,93.97
2022-12-28T00:20:59.067Z,94.37
2022-12-28T00:22:30.728Z,92.43
2022-12-28T00:24:02.789Z,93.09
2022-12-28T00:25:37.357Z,92.35
2022-12-28T00:27:09.007Z,93.06
2022-12-28T00:28:41.238Z,93.22
2022-12-28T00:30:13.320Z,93.59
2022-12-28T00:31:48.100Z,93.53
2022-12-28T00:33:19.907Z,93.39
2022-12-28T00:34:51.632Z,93.45
2022-12-28T00:36:23.377Z,93.65
2022-12-28T00:37:54.950Z,93.64
2022-12-28T00:39:26.563Z,93.60
2022-12-28T00:40:59.037Z,93.51
2022-12-28T00:42:30.680Z,92.82
2022-12-28T00:44:02.290Z,92.40
2022-12-28T00:45:33.941Z,92.56
2022-12-28T00:47:05.768Z,93.61
2022-12-28T00:48:37.560Z,91.85
2022-12-28T00:50:09.715Z,92.20
2022-12-28T00:51:41.674Z,92.48
2022-12-28T00:53:13.395Z,92.28
2022-12-28T00:54:45.006Z,92.23
2022-12-28T00:56:19.641Z,92.88
2022-12-28T00:57:52.775Z,92.76
2022-12-28T00:59:24.496Z,92.73
2022-12-28T01:00:56.167Z,92.86
2022-12-28T01:02:28.791Z,92.37
2022-12-28T01:04:00.491Z,92.91
2022-12-28T01:05:32.103Z,92.95
2022-12-28T01:07:03.670Z,92.91
2022-12-28T01:08:37.551Z,93.04
2022-12-28T01:10:09.589Z,93.25
2022-12-28T01:11:41.149Z,92.82
2022-12-28T01:13:12.722Z,92.16
2022-12-28T01:14:45.289Z,90.93
2022-12-28T01:16:20.604Z,91.99
2022-12-28T01:17:52.687Z,92.08
2022-12-28T01:19:25.192Z,92.33
2022-12-28T01:20:56.796Z,92.83
2022-12-28T01:22:28.561Z,92.22
2022-12-28T01:24:02.610Z,91.41
2022-12-28T01:25:36.677Z,91.20
2022-12-28T01:27:08.379Z,91.66
2022-12-28T01:28:40.217Z,92.10
2022-12-28T01:30:14.302Z,91.76
2022-12-28T01:31:45.919Z,91.87
2022-12-28T01:33:17.622Z,92.54
2022-12-28T01:34:49.187Z,92.11
2022-12-28T01:36:23.603Z,92.14
2022-12-28T01:37:57.388Z,92.00
2022-12-28T01:39:29.329Z,92.56
2022-12-28T01:41:01.123Z,91.68
2022-12-28T01:42:33.490Z,91.74
2022-12-28T01:44:07.078Z,92.45
2022-12-28T01:45:39.004Z,92.57
2022-12-28T01:47:14.513Z,92.80
2022-12-28T01:48:52.547Z,91.63
2022-12-28T01:50:28.299Z,92.08
2022-12-28T01:52:08.953Z,92.51
2022-12-28T01:53:40.732Z,92.90
2022-12-28T01:55:14.841Z,92.51
2022-12-28T01:56:47.570Z,92.21
2022-12-28T01:58:28.192Z,91.92
2022-12-28T02:00:11.476Z,92.20
2022-12-28T02:01:49.357Z,92.23
2022-12-28T02:03:27.416Z,91.92
2022-12-28T02:05:00.059Z,91.97
2022-12-28T02:06:32.137Z,92.50
2022-12-28T02:08:41.489Z,92.29
2022-12-28T02:10:40.444Z,91.71
2022-12-28T02:12:10.655Z,92.37
2022-12-28T02:13:47.761Z,92.45
2022-12-28T02:15:23.033Z,92.15
2022-12-28T02:16:55.758Z,92.15
2022-12-28T02:18:28.026Z,92.26
2022-12-28T02:20:00.032Z,92.15
2022-12-28T02:21:57.930Z,92.33
2022-12-28T02:24:01.593Z,91.73
2022-12-28T02:26:12.409Z,92.03
2022-12-28T02:28:15.551Z,91.55
2022-12-28T02:30:13.521Z,91.47
2022-12-28T02:32:26.568Z,91.61
2022-12-28T02:34:03.323Z,91.01
2022-12-28T02:35:40.784Z,91.74
2022-12-28T02:37:21.813Z,91.79
2022-12-28T02:39:02.968Z,90.99
2022-12-28T02:41:07.128Z,91.06
2022-12-28T02:42:39.485Z,91.37
2022-12-28T02:44:11.458Z,91.79
2022-12-28T02:46:06.338Z,92.14
2022-12-28T02:48:02.058Z,91.31
2022-12-28T02:49:52.159Z,91.58
2022-12-28T02:51:31.591Z,91.02
2022-12-28T02:53:41.658Z,91.82
2022-12-28T02:55:38.068Z,92.39
2022-12-28T02:57:21.437Z,91.91
2022-12-28T02:58:56.426Z,92.09
2022-12-28T03:00:56.917Z,91.64
2022-12-28T03:02:53.314Z,91.63
2022-12-28T03:04:31.347Z,91.82
2022-12-28T03:06:41.796Z,91.94
2022-12-28T03:08:20.558Z,91.97
2022-12-28T03:10:12.893Z,91.90
2022-12-28T03:11:53.589Z,91.80
2022-12-28T03:13:42.905Z,91.66
2022-12-28T03:15:32.559Z,91.21
2022-12-28T03:17:23.821Z,91.33
2022-12-28T03:19:26.867Z,91.93
2022-12-28T03:21:25.459Z,91.52
2022-12-28T03:23:18.287Z,91.34
2022-12-28T03:25:09.148Z,90.62
2022-12-28T03:27:11.853Z,91.07
2022-12-28T03:29:13.276Z,91.52
2022-12-28T03:31:09.113Z,91.41
2022-12-28T03:32:49.363Z,92.22
2022-12-28T03:34:21.112Z,92.08
2022-12-28T03:36:22.006Z,91.70
2022-12-28T03:38:01.003Z,91.74
2022-12-28T03:39:36.871Z,91.61
2022-12-28T03:41:15.932Z,91.23
2022-12-28T03:43:13.420Z,91.10
2022-12-28T03:44:52.429Z,90.76
2022-12-28T03:46:59.103Z,91.23
2022-12-28T03:48:33.491Z,91.37
2022-12-28T03:50:06.809Z,91.92
2022-12-28T03:51:40.440Z,91.35
2022-12-28T03:53:23.359Z,92.29
2022-12-28T03:55:00.251Z,91.87
2022-12-28T03:56:32.397Z,91.98
2022-12-28T03:58:06.885Z,91.84
2022-12-28T03:59:38.479Z,91.77
2022-12-28T04:01:11.891Z,91.71
2022-12-28T04:02:45.255Z,92.13
2022-12-28T04:04:17.510Z,92.40
2022-12-28T04:05:49.991Z,91.62
2022-12-28T04:07:22.325Z,91.82
2022-12-28T04:08:53.923Z,91.54
2022-12-28T04:10:26.685Z,91.27
2022-12-28T04:11:58.710Z,90.76
2022-12-28T04:13:45.624Z,91.71
2022-12-28T04:15:19.064Z,91.58
2022-12-28T04:16:50.645Z,91.32
2022-12-28T04:18:24.739Z,91.97
2022-12-28T04:19:56.320Z,91.70
2022-12-28T04:21:28.093Z,91.78
2022-12-28T04:23:00.465Z,92.09
2022-12-28T04:24:32.340Z,91.90
2022-12-28T04:26:12.308Z,92.00
2022-12-28T04:27:44.899Z,92.17
2022-12-28T04:29:35.945Z,91.86
2022-12-28T04:31:14.682Z,92.21
2022-12-28T04:32:55.297Z,91.93
2022-12-28T04:34:30.301Z,92.14
2022-12-28T04:36:10.039Z,91.68
2022-12-28T04:37:41.730Z,91.87
2022-12-28T04:39:13.622Z,91.85
2022-12-28T04:40:45.384Z,91.79
2022-12-28T04:42:17.071Z,92.02
2022-12-28T04:43:48.662Z,92.27
2022-12-28T04:45:22.356Z,92.44
2022-12-28T04:46:54.260Z,91.78
2022-12-28T04:48:26.335Z,92.20
2022-12-28T04:49:57.979Z,92.44
2022-12-28T04:51:30.014Z,92.46
2022-12-28T04:53:01.692Z,91.96
2022-12-28T04:54:33.255Z,91.34
2022-12-28T04:56:05.744Z,91.91
2022-12-28T04:57:37.276Z,91.29
2022-12-28T04:59:08.876Z,91.57
2022-12-28T05:00:40.619Z,91.66
2022-12-28T05:02:12.393Z,92.11
2022-12-28T05:03:51.013Z,92.22
2022-12-28T05:05:27.672Z,91.52
2022-12-28T05:06:59.309Z,91.35
2022-12-28T05:08:36.124Z,91.94
2022-12-28T05:10:08.138Z,91.97
2022-12-28T05:11:39.751Z,92.00
2022-12-28T05:13:11.415Z,92.04
2022-12-28T05:14:44.684Z,92.37
2022-12-28T05:16:21.881Z,92.09
2022-12-28T05:17:55.195Z,92.30
2022-12-28T05:19:28.067Z,92.47
2022-12-28T05:21:00.864Z,92.43
2022-12-28T05:22:35.083Z,92.79
2022-12-28T05:24:10.847Z,92.51
2022-12-28T05:25:42.421Z,92.95
2022-12-28T05:27:14.059Z,92.66
2022-12-28T05:28:46.088Z,92.69
2022-12-28T05:30:17.756Z,93.13
2022-12-28T05:31:49.336Z,92.96
2022-12-28T05:33:21.042Z,93.07
2022-12-28T05:34:52.652Z,93.70
2022-12-28T05:36:26.162Z,93.63
2022-12-28T05:37:57.780Z,93.48
2022-12-28T05:39:29.362Z,93.49
2022-12-28T05:41:08.964Z,93.06
2022-12-28T05:42:41.600Z,93.37
2022-12-28T05:44:15.502Z,93.48
2022-12-28T05:45:47.060Z,93.70
2022-12-28T05:47:18.698Z,93.49
2022-12-28T05:48:50.530Z,93.13
2022-12-28T05:50:22.102Z,93.15
2022-12-28T05:51:53.748Z,92.98
2022-12-28T05:53:25.449Z,93.27
2022-12-28T05:54:57.295Z,92.64
2022-12-28T05:56:30.192Z,93.53
2022-12-28T05:58:01.789Z,93.57
2022-12-28T05:59:33.308Z,93.06
2022-12-28T06:01:13.876Z,93.69
2022-12-28T06:02:45.549Z,93.54
2022-12-28T06:04:20.220Z,93.41
2022-12-28T06:05:51.765Z,93.34
2022-12-28T06:07:23.397Z,93.61
2022-12-28T06:08:55.388Z,93.48
2022-12-28T06:10:27.811Z,93.67
2022-12-28T06:11:59.412Z,93.52
2022-12-28T06:13:32.401Z,92.74
2022-12-28T06:15:04.264Z,93.14
2022-12-28T06:16:41.817Z,93.60
2022-12-28T06:18:13.488Z,93.19
2022-12-28T06:19:45.099Z,93.59
2022-12-28T06:21:30.727Z,93.29
2022-12-28T06:23:02.271Z,93.60
2022-12-28T06:24:33.887Z,93.62
2022-12-28T06:26:08.131Z,94.21
2022-12-28T06:27:40.086Z,93.87
2022-12-28T06:29:11.721Z,93.67
2022-12-28T06:30:46.441Z,93.59
2022-12-28T06:32:22.135Z,93.75
2022-12-28T06:33:56.182Z,93.66
2022-12-28T06:35:27.771Z,93.70
2022-12-28T06:37:00.198Z,93.83
2022-12-28T06:38:33.008Z,94.43
2022-12-28T06:40:04.966Z,94.31
2022-12-28T06:41:36.930Z,94.64
2022-12-28T06:43:08.692Z,94.30
2022-12-28T06:44:44.517Z,94.30
2022-12-28T06:46:19.118Z,93.77
2022-12-28T06:47:50.866Z,94.12
2022-12-28T06:49:22.561Z,93.76
2022-12-28T06:50:59.218Z,93.85
2022-12-28T06:52:30.810Z,93.86
2022-12-28T06:54:03.035Z,93.65
2022-12-28T06:55:34.585Z,93.73
2022-12-28T06:57:06.159Z,94.07
2022-12-28T06:58:37.803Z,94.00
2022-12-28T07:00:10.277Z,93.58
2022-12-28T07:01:44.808Z,94.07
2022-12-28T07:03:16.655Z,93.97
2022-12-28T07:04:48.323Z,94.36
2022-12-28T07:06:22.299Z,94.42
2022-12-28T07:07:53.869Z,94.15
2022-12-28T07:09:25.502Z,94.39
2022-12-28T07:11:03.147Z,94.35
2022-12-28T07:12:34.709Z,94.27
2022-12-28T07:14:06.358Z,94.32
2022-12-28T07:15:37.923Z,94.09
2022-12-28T07:17:09.496Z,93.92
2022-12-28T07:18:42.138Z,94.14
2022-12-28T07:20:13.782Z,93.61
2022-12-28T07:21:45.426Z,93.83
2022-12-28T07:23:17.002Z,94.00
2022-12-28T07:24:48.539Z,93.83
2022-12-28T07:26:23.020Z,93.85
2022-12-28T07:27:54.687Z,93.26
2022-12-28T07:29:26.221Z,93.44
2022-12-28T07:30:57.817Z,93.36
2022-12-28T07:32:29.380Z,94.19
2022-12-28T07:34:01.371Z,93.75
2022-12-28T07:35:33.023Z,93.59
2022-12-28T07:37:04.648Z,93.49
2022-12-28T07:38:36.286Z,93.71
2022-12-28T07:40:08.563Z,93.54
2022-12-28T07:41:40.302Z,93.17
2022-12-28T07:43:11.892Z,93.36
2022-12-28T07:44:49.050Z,92.81
2022-12-28T07:46:33.090Z,93.23
2022-12-28T07:48:04.873Z,93.27
2022-12-28T07:49:36.392Z,92.86
2022-12-28T07:51:13.224Z,92.78
2022-12-28T07:52:44.791Z,92.71
2022-12-28T07:54:16.325Z,92.76
2022-12-28T07:56:00.480Z,93.00
2022-12-28T07:57:32.113Z,93.04
2022-12-28T07:59:06.287Z,92.49
2022-12-28T08:00:38.060Z,92.55
2022-12-28T08:02:10.610Z,92.50
2022-12-28T08:03:43.152Z,91.86
2022-12-28T08:05:14.977Z,92.04
2022-12-28T08:06:46.807Z,92.11
2022-12-28T08:08:18.376Z,92.31
2022-12-28T08:09:50.079Z,92.33
2022-12-28T08:11:24.435Z,92.43
2022-12-28T08:12:55.966Z,92.26
2022-12-28T08:14:27.677Z,92.20
2022-12-28T08:15:59.489Z,92.11
2022-12-28T08:17:31.021Z,92.08
2022-12-28T08:19:02.895Z,92.19
2022-12-28T08:20:34.562Z,91.93
2022-12-28T08:22:06.823Z,91.74
2022-12-28T08:23:38.597Z,91.72
2022-12-28T08:25:10.254Z,91.60
2022-12-28T08:26:42.276Z,91.43
2022-12-28T08:28:13.934Z,91.66
2022-12-28T08:29:48.517Z,91.38
2022-12-28T08:31:24.543Z,91.63
2022-12-28T08:32:56.169Z,91.64
2022-12-28T08:34:28.006Z,91.47
2022-12-28T08:35:59.653Z,91.88
2022-12-28T08:37:31.308Z,91.17
2022-12-28T08:39:04.134Z,91.40
2022-12-28T08:40:35.751Z,91.57
2022-12-28T08:42:07.441Z,91.09
2022-12-28T08:43:39.298Z,90.79
2022-12-28T08:45:11.093Z,90.43
2022-12-28T08:46:42.817Z,90.29
2022-12-28T08:48:15.052Z,90.23
2022-12-28T08:49:46.714Z,90.01
2022-12-28T08:51:41.887Z,89.67
2022-12-28T08:53:13.638Z,89.50
2022-12-28T08:54:45.408Z,88.46
2022-12-28T08:56:20.381Z,88.60
2022-12-28T08:57:51.938Z,88.66
2022-12-28T08:59:23.716Z,88.53
2022-12-28T09:00:55.311Z,88.45
2022-12-28T09:02:27.097Z,87.72
2022-12-28T09:04:00.359Z,87.54
2022-12-28T09:05:37.463Z,87.10
2022-12-28T09:07:10.982Z,86.54
2022-12-28T09:08:56.789Z,86.71
2022-12-28T09:10:34.644Z,87.00
2022-12-28T09:12:07.430Z,86.17
2022-12-28T09:13:39.386Z,85.60
2022-12-28T09:15:11.105Z,85.70
2022-12-28T09:16:43.610Z,85.92
2022-12-28T09:18:15.727Z,85.50
2022-12-28T09:19:47.356Z,84.92
2022-12-28T09:21:20.680Z,85.92
2022-12-28T09:22:52.218Z,85.50
2022-12-28T09:24:23.997Z,85.70
2022-12-28T09:25:55.561Z,86.23
2022-12-28T09:27:27.210Z,85.61
2022-12-28T09:29:00.485Z,85.94
2022-12-28T09:30:32.121Z,86.17
2022-12-28T09:32:03.840Z,85.85
2022-12-28T09:34:34.314Z,85.31
2022-12-28T09:35:46.304Z,85.30
2022-12-28T09:37:18.157Z,85.36
2022-12-28T09:38:50.568Z,85.32
2022-12-28T09:40:22.296Z,84.59
2022-12-28T09:42:18.821Z,83.87
2022-12-28T09:44:16.493Z,84.52
2022-12-28T09:45:48.566Z,84.46
2022-12-28T09:47:28.827Z,84.14
2022-12-28T09:49:04.439Z,84.03
2022-12-28T09:50:36.240Z,84.43
2022-12-28T09:52:23.012Z,83.99
2022-12-28T09:53:54.685Z,83.68
2022-12-28T09:55:28.399Z,83.66
2022-12-28T09:57:00.267Z,83.67
2022-12-28T09:58:36.679Z,83.61
2022-12-28T10:00:17.178Z,84.13
2022-12-28T10:01:57.842Z,84.64
2022-12-28T10:03:43.149Z,83.95
2022-12-28T10:05:15.194Z,83.82
2022-12-28T10:06:47.025Z,84.13
2022-12-28T10:08:21.566Z,84.08
2022-12-28T10:09:53.331Z,84.10
2022-12-28T10:11:33.355Z,83.93
2022-12-28T10:13:45.545Z,83.58
2022-12-28T10:15:12.821Z,84.06
2022-12-28T10:16:48.688Z,84.06
2022-12-28T10:18:26.082Z,84.38
2022-12-28T10:19:59.257Z,83.91
2022-12-28T10:21:33.500Z,83.84
2022-12-28T10:23:05.364Z,83.11
2022-12-28T10:24:38.927Z,83.71
2022-12-28T10:26:16.935Z,82.85
2022-12-28T10:27:48.809Z,82.85
2022-12-28T10:29:22.850Z,82.19
2022-12-28T10:31:07.545Z,81.91
2022-12-28T10:32:59.499Z,81.42
2022-12-28T10:34:35.333Z,81.72
2022-12-28T10:36:12.931Z,81.19
2022-12-28T10:37:44.964Z,80.84
2022-12-28T10:39:23.387Z,80.60
2022-12-28T10:41:12.505Z,80.00
2022-12-28T10:42:46.604Z,79.48
2022-12-28T10:44:44.319Z,79.38
2022-12-28T10:46:22.949Z,79.28
2022-12-28T10:47:56.757Z,79.16
2022-12-28T10:49:33.137Z,79.59
2022-12-28T10:51:07.754Z,78.63
2022-12-28T10:52:39.615Z,79.29
2022-12-28T10:54:27.636Z,80.31
2022-12-28T10:56:05.344Z,79.51
2022-12-28T10:57:38.219Z,80.53
2022-12-28T10:59:15.389Z,80.85
2022-12-28T11:01:01.017Z,80.01
2022-12-28T11:02:33.328Z,78.81
2022-12-28T11:04:23.452Z,78.71
2022-12-28T11:06:18.863Z,78.85
2022-12-28T11:08:05.901Z,79.10
2022-12-28T11:09:37.505Z,79.02
2022-12-28T11:11:23.288Z,78.89
2022-12-28T11:13:00.340Z,78.20
2022-12-28T11:14:34.982Z,78.75
2022-12-28T11:16:13.344Z,78.56
2022-12-28T11:17:53.035Z,78.31
2022-12-28T11:19:25.976Z,78.71
2022-12-28T11:20:57.485Z,76.66
2022-12-28T11:22:30.045Z,75.26
2022-12-28T11:24:01.991Z,74.81
2022-12-28T11:25:36.328Z,75.47
2022-12-28T11:27:13.963Z,72.80
2022-12-28T11:28:49.167Z,72.71
2022-12-28T11:30:21.068Z,72.83
2022-12-28T11:32:01.383Z,70.08
2022-12-28T11:33:37.425Z,71.91
2022-12-28T11:35:14.957Z,72.44
2022-12-28T11:36:47.518Z,71.32
2022-12-28T11:38:39.712Z,70.85
2022-12-28T11:40:43.084Z,69.40
2022-12-28T11:42:41.331Z,64.55
2022-12-28T11:44:29.647Z,63.89
2022-12-28T11:46:03.624Z,64.68
2022-12-28T11:47:36.088Z,67.69
2022-12-28T11:49:08.456Z,67.43
2022-12-28T11:50:42.271Z,66.02
2022-12-28T11:52:16.519Z,66.26
2022-12-28T11:53:49.859Z,68.61
2022-12-28T11:55:21.401Z,67.90
2022-12-28T11:56:52.922Z,66.12
2022-12-28T11:58:30.451Z,67.06
2022-12-28T12:00:22.369Z,68.52
2022-12-28T12:02:27.359Z,69.50
2022-12-28T12:03:59.056Z,68.53
2022-12-28T12:05:37.106Z,69.66
2022-12-28T12:07:46.342Z,69.40
2022-12-28T12:09:38.273Z,70.06
2022-12-28T12:11:18.922Z,68.63
2022-12-28T12:12:52.429Z,70.03
2022-12-28T12:14:30.026Z,69.77
2022-12-28T12:16:05.366Z,70.28
2022-12-28T12:17:47.623Z,68.38
2022-12-28T12:19:26.665Z,69.28
2022-12-28T12:21:03.068Z,70.74
2022-12-28T12:22:42.757Z,68.36
2022-12-28T12:24:27.959Z,68.03
2022-12-28T12:26:09.740Z,67.36
2022-12-28T12:28:03.226Z,66.61
2022-12-28T12:29:40.455Z,66.99
2022-12-28T12:31:26.094Z,66.72
2022-12-28T12:33:10.672Z,66.71
2022-12-28T12:34:49.645Z,64.99
2022-12-28T12:36:27.825Z,64.96
2022-12-28T12:38:31.870Z,64.07
2022-12-28T12:40:15.120Z,63.87
2022-12-28T12:42:27.052Z,61.89
2022-12-28T12:44:07.772Z,62.24
2022-12-28T12:45:48.891Z,62.33
2022-12-28T12:47:32.474Z,62.56
2022-12-28T12:49:22.711Z,61.80
2022-12-28T12:51:05.269Z,62.67
2022-12-28T12:53:28.202Z,61.84
2022-12-28T12:55:21.150Z,61.35
2022-12-28T12:57:07.862Z,61.79
2022-12-28T12:58:45.465Z,61.91
2022-12-28T13:00:19.688Z,63.11
2022-12-28T13:02:12.373Z,63.50
2022-12-28T13:03:51.918Z,62.89
2022-12-28T13:05:28.528Z,63.39
2022-12-28T13:07:04.117Z,63.91
2022-12-28T13:08:40.740Z,64.80
2022-12-28T13:10:41.212Z,64.39
2022-12-28T13:12:16.867Z,63.29
2022-12-28T13:13:51.867Z,63.82
2022-12-28T13:15:23.767Z,63.73
2022-12-28T13:16:58.560Z,63.88
2022-12-28T13:18:46.222Z,63.22
2022-12-28T13:20:21.186Z,64.85
2022-12-28T13:21:53.503Z,65.17
2022-12-28T13:23:26.748Z,64.82
2022-12-28T13:25:01.541Z,62.91
2022-12-28T13:26:34.200Z,64.34
2022-12-28T13:28:06.408Z,65.34
2022-12-28T13:29:41.292Z,65.24
2022-12-28T13:31:25.314Z,65.18
2022-12-28T13:32:59.618Z,66.37
2022-12-28T13:34:35.164Z,66.22
2022-12-28T13:36:09.670Z,65.86
2022-12-28T13:37:41.254Z,66.19
2022-12-28T13:39:14.290Z,66.35
2022-12-28T13:40:53.842Z,67.07
2022-12-28T13:42:35.831Z,66.71
2022-12-28T13:44:10.540Z,66.16
2022-12-28T13:45:46.211Z,67.57
2022-12-28T13:47:35.446Z,68.77
2022-12-28T13:49:07.497Z,69.52
2022-12-28T13:50:41.707Z,70.87
2022-12-28T13:52:20.822Z,71.04
2022-12-28T13:53:59.154Z,70.50
2022-12-28T13:55:37.708Z,72.10
2022-12-28T13:57:45.142Z,72.21
2022-12-28T13:59:12.409Z,72.78
2022-12-28T14:00:47.267Z,73.89
2022-12-28T14:02:20.993Z,74.10
2022-12-28T14:04:33.693Z,73.55
2022-12-28T14:06:01.892Z,74.07
2022-12-28T14:07:36.269Z,73.82
2022-12-28T14:09:11.346Z,74.21
2022-12-28T14:10:45.619Z,74.41
2022-12-28T14:12:18.421Z,75.18
2022-12-28T14:13:52.301Z,75.67
2022-12-28T14:15:24.236Z,75.61
2022-12-28T14:16:56.335Z,75.66
2022-12-28T14:18:30.234Z,75.54
2022-12-28T14:20:01.916Z,76.04
2022-12-28T14:21:45.246Z,76.01
2022-12-28T14:23:26.277Z,75.65
2022-12-28T14:25:12.482Z,75.83
2022-12-28T14:26:52.656Z,76.52
2022-12-28T14:28:36.765Z,76.00
2022-12-28T14:30:22.727Z,75.89
2022-12-28T14:32:08.354Z,76.28
2022-12-28T14:33:56.336Z,77.32
2022-12-28T14:35:28.946Z,76.46
2022-12-28T14:37:02.433Z,76.91
2022-12-28T14:38:44.292Z,77.42
2022-12-28T14:40:26.440Z,77.66
2022-12-28T14:42:02.965Z,77.08
2022-12-28T14:43:37.103Z,77.99
2022-12-28T14:45:30.916Z,77.72
2022-12-28T14:47:03.490Z,78.04
2022-12-28T14:48:40.728Z,77.83
2022-12-28T14:50:17.618Z,78.41
2022-12-28T14:51:49.743Z,78.17
2022-12-28T14:53:21.855Z,78.66
2022-12-28T14:54:56.614Z,78.53
2022-12-28T14:56:35.015Z,78.74
2022-12-28T14:58:18.896Z,78.12
2022-12-28T15:00:25.648Z,77.99
2022-12-28T15:01:57.587Z,79.09
2022-12-28T15:03:30.715Z,79.30
2022-12-28T15:05:03.928Z,79.26
2022-12-28T15:06:35.628Z,79.10
2022-12-28T15:08:11.393Z,78.78
2022-12-28T15:09:43.046Z,78.67
2022-12-28T15:11:14.723Z,79.92
2022-12-28T15:12:46.439Z,79.56
2022-12-28T15:14:18.176Z,79.21
2022-12-28T15:16:00.946Z,80.36
2022-12-28T15:17:33.378Z,80.91
2022-12-28T15:19:08.833Z,81.16
2022-12-28T15:20:40.835Z,81.11
2022-12-28T15:22:12.865Z,80.44
2022-12-28T15:23:49.297Z,80.58
2022-12-28T15:25:21.233Z,81.98
2022-12-28T15:26:53.574Z,80.73
2022-12-28T15:28:28.152Z,80.50
2022-12-28T15:30:08.425Z,81.06
2022-12-28T15:31:42.702Z,82.41
2022-12-28T15:33:14.434Z,82.48
2022-12-28T15:34:46.019Z,82.09
2022-12-28T15:36:20.627Z,81.98
2022-12-28T15:37:52.336Z,82.20
2022-12-28T15:39:25.105Z,82.60
2022-12-28T15:40:57.912Z,83.31
2022-12-28T15:42:31.470Z,83.45
2022-12-28T15:44:05.654Z,83.13
2022-12-28T15:45:37.293Z,82.43
2022-12-28T15:47:08.983Z,82.99
2022-12-28T15:48:45.791Z,83.53
2022-12-28T15:50:19.271Z,84.07
2022-12-28T15:51:51.191Z,83.23
2022-12-28T15:53:22.817Z,83.82
2022-12-28T15:54:54.549Z,83.31
2022-12-28T15:56:29.199Z,82.50
2022-12-28T15:58:03.553Z,82.91
2022-12-28T15:59:35.128Z,82.80
2022-12-28T16:01:07.272Z,83.56
2022-12-28T16:02:39.184Z,83.05
2022-12-28T16:04:11.714Z,83.18
2022-12-28T16:05:43.342Z,83.24
2022-12-28T16:07:15.102Z,84.25
2022-12-28T16:08:46.750Z,83.06
2022-12-28T16:10:19.033Z,82.98
2022-12-28T16:11:55.067Z,82.89
2022-12-28T16:13:27.073Z,83.73
2022-12-28T16:14:58.696Z,83.60
2022-12-28T16:16:33.849Z,83.71
2022-12-28T16:18:05.558Z,84.24
2022-12-28T16:19:37.317Z,83.87
2022-12-28T16:21:10.875Z,83.60
2022-12-28T16:22:42.544Z,84.23
2022-12-28T16:24:14.213Z,83.56
2022-12-28T16:25:51.922Z,83.81
2022-12-28T16:27:23.720Z,83.75
2022-12-28T16:28:55.450Z,84.83
2022-12-28T16:30:27.147Z,84.64
2022-12-28T16:32:00.712Z,84.18
2022-12-28T16:33:32.976Z,85.07
2022-12-28T16:35:05.066Z,85.16
2022-12-28T16:36:36.771Z,84.59
2022-12-28T16:38:08.391Z,84.64
2022-12-28T16:39:39.955Z,85.34
2022-12-28T16:41:12.492Z,84.71
2022-12-28T16:42:46.140Z,83.59
2022-12-28T16:44:21.280Z,83.64
2022-12-28T16:45:53.026Z,84.45
2022-12-28T16:47:24.625Z,83.22
2022-12-28T16:48:56.388Z,83.32
2022-12-28T16:50:28.647Z,84.21
2022-12-28T16:52:00.312Z,84.28
2022-12-28T16:53:35.352Z,83.13
2022-12-28T16:55:07.310Z,83.24
2022-12-28T16:56:39.026Z,83.54
2022-12-28T16:58:10.603Z,83.70
2022-12-28T16:59:42.236Z,84.39
2022-12-28T17:01:13.998Z,84.00
2022-12-28T17:02:45.819Z,84.71
2022-12-28T17:04:18.261Z,84.43
2022-12-28T17:05:51.988Z,85.10
2022-12-28T17:07:23.591Z,85.70
2022-12-28T17:08:55.235Z,85.28
2022-12-28T17:10:27.142Z,85.40
2022-12-28T17:11:58.845Z,85.50
2022-12-28T17:13:30.668Z,86.58
2022-12-28T17:15:05.316Z,85.67
2022-12-28T17:16:37.543Z,86.60
2022-12-28T17:18:10.010Z,86.60
2022-12-28T17:19:41.659Z,86.94
2022-12-28T17:21:13.345Z,86.82
2022-12-28T17:22:45.091Z,86.59
2022-12-28T17:24:16.670Z,86.94
2022-12-28T17:25:54.160Z,86.67
2022-12-28T17:27:26.164Z,86.01
2022-12-28T17:28:58.655Z,86.21
2022-12-28T17:30:30.355Z,85.86
2022-12-28T17:32:02.049Z,85.11
2022-12-28T17:33:39.259Z,85.07
2022-12-28T17:35:11.786Z,86.34
2022-12-28T17:36:43.385Z,86.35
2022-12-28T17:38:15.024Z,86.40
2022-12-28T17:39:46.695Z,86.58
2022-12-28T17:41:24.732Z,87.26
2022-12-28T17:42:56.372Z,87.54
2022-12-28T17:44:27.931Z,87.19
2022-12-28T17:46:02.853Z,87.09
2022-12-28T17:47:35.066Z,86.86
2022-12-28T17:49:08.361Z,87.19
2022-12-28T17:50:43.748Z,87.54
2022-12-28T17:52:20.139Z,87.30
2022-12-28T17:53:53.708Z,87.62
2022-12-28T17:55:25.297Z,88.23
2022-12-28T17:56:56.923Z,87.50
2022-12-28T17:58:28.985Z,87.62
2022-12-28T18:00:00.603Z,88.47
2022-12-28T18:01:32.405Z,88.50
2022-12-28T18:03:04.343Z,88.25
2022-12-28T18:04:36.948Z,88.80
2022-12-28T18:06:08.581Z,88.05
2022-12-28T18:07:40.126Z,88.30
2022-12-28T18:09:11.694Z,88.60
2022-12-28T18:10:44.203Z,88.41
2022-12-28T18:12:16.663Z,87.76
2022-12-28T18:13:48.549Z,88.21
2022-12-28T18:15:20.525Z,87.53
2022-12-28T18:16:52.495Z,87.28
2022-12-28T18:18:24.115Z,87.68
2022-12-28T18:19:55.984Z,88.16
2022-12-28T18:21:28.444Z,88.31
2022-12-28T18:23:00.145Z,88.98
2022-12-28T18:24:32.226Z,89.29
2022-12-28T18:26:04.947Z,89.19
2022-12-28T18:27:36.868Z,88.88
2022-12-28T18:29:08.503Z,88.76
2022-12-28T18:30:42.209Z,89.09
2022-12-28T18:32:13.875Z,87.41
2022-12-28T18:33:46.002Z,87.14
2022-12-28T18:35:17.581Z,87.22
2022-12-28T18:36:49.265Z,87.75
2022-12-28T18:38:20.969Z,88.32
2022-12-28T18:39:52.632Z,88.60
2022-12-28T18:41:27.729Z,88.76
2022-12-28T18:43:02.214Z,88.68
2022-12-28T18:44:33.837Z,88.74
2022-12-28T18:46:06.826Z,89.42
2022-12-28T18:47:38.699Z,89.06
2022-12-28T18:49:10.596Z,89.32
2022-12-28T18:50:51.154Z,89.35
2022-12-28T18:52:23.020Z,89.27
2022-12-28T18:53:54.742Z,89.23
2022-12-28T18:55:26.435Z,89.44
2022-12-28T18:56:58.677Z,89.40
2022-12-28T18:58:32.720Z,89.18
2022-12-28T19:00:04.894Z,89.23
2022-12-28T19:03:30.994Z,88.93
2022-12-28T19:05:03.846Z,89.04
2022-12-28T19:06:36.177Z,88.61
2022-12-28T19:08:07.898Z,89.16
2022-12-28T19:09:39.721Z,89.48
2022-12-28T19:11:11.460Z,89.66
2022-12-28T19:12:44.186Z,89.68
2022-12-28T19:14:16.283Z,89.93
2022-12-28T19:15:47.927Z,89.88
2022-12-28T19:17:19.565Z,89.24
2022-12-28T19:18:51.182Z,89.69
2022-12-28T19:20:23.561Z,89.96
2022-12-28T19:21:58.881Z,90.08
2022-12-28T19:23:30.962Z,90.25
2022-12-28T19:25:02.728Z,89.88
2022-12-28T19:26:35.565Z,90.74
2022-12-28T19:28:08.306Z,89.96
2022-12-28T19:29:39.935Z,89.76
2022-12-28T19:31:11.625Z,89.98
2022-12-28T19:32:43.191Z,89.49
2022-12-28T19:34:15.936Z,89.80
2022-12-28T19:35:47.633Z,89.09
2022-12-28T19:37:19.457Z,88.25
2022-12-28T19:38:54.464Z,89.27
2022-12-28T19:40:26.075Z,89.27
2022-12-28T19:41:57.773Z,89.47
2022-12-28T19:43:29.315Z,89.76
2022-12-28T19:45:06.408Z,89.78
2022-12-28T19:46:41.200Z,89.66
2022-12-28T19:48:12.946Z,90.58
2022-12-28T19:49:44.607Z,89.90
2022-12-28T19:51:16.211Z,89.84
2022-12-28T19:52:47.814Z,90.17
2022-12-28T19:54:19.489Z,90.49
2022-12-28T19:55:56.166Z,90.29
2022-12-28T19:57:27.779Z,90.06
2022-12-28T19:59:05.922Z,89.80
2022-12-28T20:00:38.395Z,89.67
2022-12-28T20:02:12.032Z,89.51
2022-12-28T20:03:44.387Z,89.61
2022-12-28T20:05:16.193Z,90.12
2022-12-28T20:06:47.736Z,90.01
2022-12-28T20:08:19.239Z,90.44
2022-12-28T20:09:50.916Z,90.03
2022-12-28T20:11:23.372Z,89.78
2022-12-28T20:12:55.028Z,90.42
2022-12-28T20:14:26.663Z,90.08
2022-12-28T20:15:58.356Z,89.97
2022-12-28T20:17:30.011Z,90.02
2022-12-28T20:19:01.868Z,90.16
2022-12-28T20:21:00.903Z,90.08
2022-12-28T20:22:25.267Z,90.29
2022-12-28T20:23:56.795Z,90.14
2022-12-28T20:25:28.460Z,90.13
2022-12-28T20:27:01.867Z,90.39
2022-12-28T20:28:34.506Z,90.42
2022-12-28T20:30:06.652Z,90.68
2022-12-28T20:31:38.327Z,90.05
2022-12-28T20:33:09.957Z,90.06
2022-12-28T20:34:41.631Z,89.96
2022-12-28T20:36:34.066Z,90.03
2022-12-28T20:38:06.373Z,90.13